Time;durP1;ratioP1;P1;durP2;ratioP2;P2;SDS_P1;SDS_P2;PMS_P1;PMS_P2;Temp;Humidity;BMP_temperature;BMP_pressure;BME280_temperature;BME280_humidity;BME280_pressure;Samples;Min_cycle;Max_cycle;Signal;HPM_P1;HPM_P2
2021/12/23 00:00:19;;;;;;;9.90;5.10;;;;;;;;;;4964165;28;20210;-66
2021/12/23 00:02:46;;;;;;;10.73;5.87;;;;;;;;;;4967732;28;20209;-66
2021/12/23 00:05:13;;;;;;;9.00;5.33;;;;;;;;;;4965659;28;20732;-65
2021/12/23 00:07:41;;;;;;;5.10;3.50;;;;;;;;;;4968429;28;20238;-65
2021/12/23 00:10:09;;;;;;;9.20;6.73;;;;;;;;;;4969022;28;20556;-66
2021/12/23 00:12:39;;;;;;;16.57;2.73;;;;;;;;;;4967323;28;20289;-66
2021/12/23 00:15:15;;;;;;;17.63;9.40;;;;;;;;;;4965980;28;20213;-65
2021/12/23 00:17:59;;;;;;;8.70;5.27;;;;;;;;;;4966593;28;20216;-65
2021/12/23 00:23:27;;;;;;;5.93;4.53;;;;;;;;;;4965770;28;21535;-66
2021/12/23 00:25:57;;;;;;;8.67;4.10;;;;;;;;;;4964833;28;20252;-67
2021/12/23 00:28:26;;;;;;;7.83;3.40;;;;;;;;;;4968107;28;20210;-68
2021/12/23 00:30:53;;;;;;;3.50;3.17;;;;;;;;;;4966871;28;20202;-64
2021/12/23 00:33:22;;;;;;;4.70;3.20;;;;;;;;;;4967590;28;20210;-66
2021/12/23 00:35:50;;;;;;;2.73;1.83;;;;;;;;;;4966959;28;20205;-66
2021/12/23 00:38:22;;;;;;;1.27;1.03;;;;;;;;;;4965889;28;20651;-66
2021/12/23 00:40:51;;;;;;;11.00;5.83;;;;;;;;;;4965262;28;20207;-66
2021/12/23 00:43:19;;;;;;;3.50;2.57;;;;;;;;;;4965662;28;20673;-66
2021/12/23 00:45:48;;;;;;;0.20;0.20;;;;;;;;;;4967706;28;20230;-67
2021/12/23 00:48:16;;;;;;;12.67;8.33;;;;;;;;;;4967161;28;20206;-66
2021/12/23 00:50:43;;;;;;;1.30;1.20;;;;;;;;;;4966199;28;20205;-65
2021/12/23 00:53:13;;;;;;;4.53;2.73;;;;;;;;;;4966955;28;20234;-65
2021/12/23 00:55:40;;;;;;;0.57;0.57;;;;;;;;;;4968525;28;20191;-65
2021/12/23 00:58:07;;;;;;;10.20;4.63;;;;;;;;;;4965856;28;20582;-65
2021/12/23 01:00:35;;;;;;;8.40;5.53;;;;;;;;;;4966158;28;20214;-66
2021/12/23 01:03:04;;;;;;;4.13;3.80;;;;;;;;;;4967285;28;20202;-66
2021/12/23 01:05:31;;;;;;;2.90;2.70;;;;;;;;;;4965545;28;20240;-63
2021/12/23 01:07:59;;;;;;;9.73;5.70;;;;;;;;;;4963945;28;20220;-66
2021/12/23 01:10:27;;;;;;;7.83;5.43;;;;;;;;;;4965956;28;20210;-67
2021/12/23 01:12:59;;;;;;;4.00;3.33;;;;;;;;;;4966711;28;20206;-66
2021/12/23 01:15:57;;;;;;;2.27;2.17;;;;;;;;;;4965464;28;20211;-65
2021/12/23 01:18:29;;;;;;;4.80;4.37;;;;;;;;;;4966267;28;20214;-65
2021/12/23 01:21:14;;;;;;;0.73;0.67;;;;;;;;;;4966623;28;20214;-65
2021/12/23 01:23:43;;;;;;;3.60;2.93;;;;;;;;;;4967685;28;20202;-65
2021/12/23 01:26:11;;;;;;;7.47;2.97;;;;;;;;;;4965430;28;20854;-64
2021/12/23 01:28:39;;;;;;;4.53;4.17;;;;;;;;;;4964222;28;20209;-64
2021/12/23 01:31:06;;;;;;;7.23;5.93;;;;;;;;;;4963039;28;20217;-66
2021/12/23 01:33:35;;;;;;;10.43;4.73;;;;;;;;;;4968255;28;20671;-66
2021/12/23 01:36:03;;;;;;;16.30;7.00;;;;;;;;;;4962918;28;20202;-66
2021/12/23 01:38:30;;;;;;;16.97;7.77;;;;;;;;;;4966442;28;20210;-65
2021/12/23 01:40:58;;;;;;;1.13;1.13;;;;;;;;;;4964019;28;20202;-66
2021/12/23 01:43:25;;;;;;;13.07;5.53;;;;;;;;;;4965729;28;20206;-65
2021/12/23 01:45:53;;;;;;;3.80;2.47;;;;;;;;;;4964461;28;20230;-66
2021/12/23 01:48:21;;;;;;;6.67;3.97;;;;;;;;;;4968064;28;20807;-65
2021/12/23 01:50:50;;;;;;;6.53;4.27;;;;;;;;;;4969687;28;20210;-67
2021/12/23 01:53:17;;;;;;;9.33;2.70;;;;;;;;;;4967246;28;20225;-65
2021/12/23 01:55:45;;;;;;;18.07;5.67;;;;;;;;;;4971334;28;20782;-65
2021/12/23 01:58:13;;;;;;;3.13;2.90;;;;;;;;;;4968654;28;20194;-65
2021/12/23 02:00:41;;;;;;;10.37;7.77;;;;;;;;;;4970920;28;20237;-65
2021/12/23 02:03:09;;;;;;;2.17;1.23;;;;;;;;;;4968439;28;20217;-65
2021/12/23 02:05:36;;;;;;;6.63;4.53;;;;;;;;;;4970201;28;20226;-66
2021/12/23 02:08:05;;;;;;;13.83;8.57;;;;;;;;;;4967405;28;20198;-65
2021/12/23 02:10:33;;;;;;;5.30;2.70;;;;;;;;;;4969659;28;20206;-65
2021/12/23 02:13:00;;;;;;;0.40;0.40;;;;;;;;;;4968741;28;20230;-65
2021/12/23 02:15:29;;;;;;;4.63;3.83;;;;;;;;;;4969399;28;20207;-65
2021/12/23 02:17:56;;;;;;;4.07;3.77;;;;;;;;;;4968549;28;20213;-65
2021/12/23 02:20:26;;;;;;;8.50;5.37;;;;;;;;;;4969920;28;20334;-65
2021/12/23 02:22:53;;;;;;;2.43;1.70;;;;;;;;;;4969582;28;20198;-65
2021/12/23 02:25:21;;;;;;;4.43;3.17;;;;;;;;;;4969161;28;20256;-65
2021/12/23 02:27:49;;;;;;;2.27;1.60;;;;;;;;;;4967760;28;20210;-65
2021/12/23 02:30:18;;;;;;;7.10;4.93;;;;;;;;;;4969884;28;20214;-65
2021/12/23 02:32:46;;;;;;;3.40;2.40;;;;;;;;;;4967597;28;20203;-66
2021/12/23 02:35:15;;;;;;;10.30;6.37;;;;;;;;;;4969609;28;20208;-66
2021/12/23 02:37:44;;;;;;;3.50;3.20;;;;;;;;;;4969079;28;20198;-65
2021/12/23 02:40:12;;;;;;;8.43;3.80;;;;;;;;;;4969083;28;20668;-66
2021/12/23 02:42:40;;;;;;;0.43;0.43;;;;;;;;;;4969004;28;20213;-66
2021/12/23 02:45:09;;;;;;;8.67;5.90;;;;;;;;;;4967687;28;20229;-66
2021/12/23 02:47:38;;;;;;;6.43;3.63;;;;;;;;;;4968215;28;20222;-66
2021/12/23 02:50:06;;;;;;;0.93;0.83;;;;;;;;;;4966823;28;20210;-66
2021/12/23 02:52:34;;;;;;;2.13;1.93;;;;;;;;;;4965035;28;20234;-66
2021/12/23 02:55:04;;;;;;;10.47;8.33;;;;;;;;;;4968856;28;20690;-66
2021/12/23 02:57:32;;;;;;;15.00;9.70;;;;;;;;;;4968904;28;20206;-66
2021/12/23 02:59:59;;;;;;;9.53;6.33;;;;;;;;;;4968081;28;20924;-66
2021/12/23 03:02:27;;;;;;;11.60;7.10;;;;;;;;;;4968362;28;20230;-66
2021/12/23 03:04:54;;;;;;;1.30;0.73;;;;;;;;;;4968380;28;20240;-65
2021/12/23 03:07:21;;;;;;;9.20;4.17;;;;;;;;;;4968507;28;20210;-65
2021/12/23 03:09:49;;;;;;;11.40;7.63;;;;;;;;;;4968926;28;20694;-66
2021/12/23 03:12:18;;;;;;;1.60;1.50;;;;;;;;;;4969627;28;20198;-65
2021/12/23 03:14:46;;;;;;;12.07;6.27;;;;;;;;;;4966212;28;20198;-65
2021/12/23 03:17:14;;;;;;;7.53;6.43;;;;;;;;;;4966906;28;20210;-65
2021/12/23 03:19:41;;;;;;;10.70;6.23;;;;;;;;;;4968639;28;20199;-66
2021/12/23 03:22:09;;;;;;;2.60;2.40;;;;;;;;;;4970461;28;20321;-66
2021/12/23 03:24:36;;;;;;;10.50;3.97;;;;;;;;;;4967199;28;20203;-66
2021/12/23 03:27:04;;;;;;;3.63;3.30;;;;;;;;;;4966284;28;20216;-66
2021/12/23 03:29:32;;;;;;;4.77;4.37;;;;;;;;;;4969365;28;20198;-66
2021/12/23 03:32:00;;;;;;;3.33;3.03;;;;;;;;;;4965877;28;20212;-66
2021/12/23 03:34:28;;;;;;;3.50;2.00;;;;;;;;;;4967830;28;20265;-66
2021/12/23 03:36:55;;;;;;;2.13;1.13;;;;;;;;;;4968523;28;20210;-66
2021/12/23 03:39:23;;;;;;;2.43;2.23;;;;;;;;;;4967870;28;20206;-65
2021/12/23 03:41:50;;;;;;;25.97;10.17;;;;;;;;;;4968194;28;20640;-66
2021/12/23 03:44:18;;;;;;;2.03;1.50;;;;;;;;;;4968329;28;20206;-66
2021/12/23 03:46:47;;;;;;;12.57;6.33;;;;;;;;;;4966520;28;20234;-67
2021/12/23 03:49:14;;;;;;;1.67;1.57;;;;;;;;;;4966474;28;20663;-68
2021/12/23 03:51:41;;;;;;;0.50;0.50;;;;;;;;;;4967033;28;20234;-67
2021/12/23 03:54:09;;;;;;;8.50;5.87;;;;;;;;;;4968270;28;20205;-66
2021/12/23 03:56:36;;;;;;;4.27;3.73;;;;;;;;;;4965779;28;20220;-66
2021/12/23 03:59:04;;;;;;;11.23;2.50;;;;;;;;;;4966608;28;20210;-66
2021/12/23 04:01:32;;;;;;;1.80;1.60;;;;;;;;;;4967799;28;20198;-66
2021/12/23 04:04:01;;;;;;;4.40;2.60;;;;;;;;;;4967776;28;20218;-66
2021/12/23 04:06:28;;;;;;;7.37;6.27;;;;;;;;;;4967744;28;20237;-66
2021/12/23 04:08:56;;;;;;;1.33;1.33;;;;;;;;;;4966087;28;20300;-67
2021/12/23 04:11:23;;;;;;;3.10;2.90;;;;;;;;;;4967300;28;20209;-66
2021/12/23 04:13:53;;;;;;;7.43;6.67;;;;;;;;;;4966931;28;20544;-66
2021/12/23 04:16:20;;;;;;;0.20;0.20;;;;;;;;;;4966957;28;20214;-66
2021/12/23 04:18:50;;;;;;;10.73;4.43;;;;;;;;;;4967922;28;20237;-66
2021/12/23 04:21:19;;;;;;;4.13;2.53;;;;;;;;;;4968803;28;20285;-65
2021/12/23 04:23:47;;;;;;;13.83;5.30;;;;;;;;;;4964073;28;20206;-66
2021/12/23 04:26:14;;;;;;;2.93;2.43;;;;;;;;;;4966174;28;20233;-66
2021/12/23 04:28:47;;;;;;;2.17;2.00;;;;;;;;;;4968370;28;20202;-65
2021/12/23 04:31:15;;;;;;;3.93;1.83;;;;;;;;;;4965697;28;20280;-66
2021/12/23 04:33:43;;;;;;;7.10;5.17;;;;;;;;;;4967254;28;20544;-66
2021/12/23 04:36:10;;;;;;;5.20;3.10;;;;;;;;;;4966133;28;20202;-66
2021/12/23 04:38:40;;;;;;;4.47;4.03;;;;;;;;;;4963781;28;20207;-66
2021/12/23 04:41:08;;;;;;;3.57;2.33;;;;;;;;;;4966384;28;20213;-66
2021/12/23 04:43:35;;;;;;;7.63;4.03;;;;;;;;;;4966170;28;20202;-66
2021/12/23 04:46:03;;;;;;;7.27;3.27;;;;;;;;;;4965649;28;20230;-66
2021/12/23 04:48:31;;;;;;;5.20;4.73;;;;;;;;;;4966975;28;20210;-66
2021/12/23 04:51:01;;;;;;;0.40;0.40;;;;;;;;;;4967028;28;20213;-66
2021/12/23 04:53:30;;;;;;;3.17;2.80;;;;;;;;;;4954263;28;20228;-66
2021/12/23 04:55:59;;;;;;;1.20;1.20;;;;;;;;;;4965510;28;20648;-66
2021/12/23 04:58:26;;;;;;;3.00;2.00;;;;;;;;;;4965853;28;20210;-66
2021/12/23 05:00:53;;;;;;;2.07;1.90;;;;;;;;;;4966176;28;20213;-66
2021/12/23 05:03:22;;;;;;;2.40;2.10;;;;;;;;;;4966037;28;20210;-66
2021/12/23 05:05:49;;;;;;;16.57;3.33;;;;;;;;;;4965665;28;20241;-66
2021/12/23 05:08:17;;;;;;;0.77;0.77;;;;;;;;;;4967827;28;20221;-67
2021/12/23 05:10:45;;;;;;;0.13;0.13;;;;;;;;;;4965722;28;20202;-67
2021/12/23 05:13:14;;;;;;;9.83;5.23;;;;;;;;;;4966038;28;20237;-66
2021/12/23 05:15:42;;;;;;;3.23;2.93;;;;;;;;;;4965774;28;20221;-67
2021/12/23 05:18:09;;;;;;;7.03;5.13;;;;;;;;;;4966770;28;20198;-66
2021/12/23 05:20:37;;;;;;;1.90;1.20;;;;;;;;;;4967148;28;20206;-65
2021/12/23 05:23:05;;;;;;;1.97;1.37;;;;;;;;;;4965407;28;20297;-64
2021/12/23 05:25:32;;;;;;;6.53;2.57;;;;;;;;;;4965157;28;20230;-66
2021/12/23 05:28:01;;;;;;;2.40;2.30;;;;;;;;;;4965908;28;20207;-66
2021/12/23 05:30:30;;;;;;;5.30;4.80;;;;;;;;;;4969317;28;20210;-66
2021/12/23 05:32:57;;;;;;;4.43;3.77;;;;;;;;;;4965469;28;20290;-66
2021/12/23 05:35:25;;;;;;;7.93;5.07;;;;;;;;;;4966095;28;20213;-65
2021/12/23 05:37:53;;;;;;;3.90;2.47;;;;;;;;;;4966264;28;20790;-65
2021/12/23 05:40:21;;;;;;;3.90;3.53;;;;;;;;;;4965695;28;20672;-65
2021/12/23 05:42:49;;;;;;;1.70;1.57;;;;;;;;;;4968180;28;20698;-65
2021/12/23 05:45:17;;;;;;;1.73;1.63;;;;;;;;;;4965752;28;20217;-65
2021/12/23 05:47:46;;;;;;;1.30;1.30;;;;;;;;;;4963826;28;20207;-66
2021/12/23 05:50:14;;;;;;;4.80;4.43;;;;;;;;;;4966132;28;20675;-65
2021/12/23 05:52:42;;;;;;;2.80;2.07;;;;;;;;;;4964985;28;20198;-66
2021/12/23 05:55:11;;;;;;;8.43;4.00;;;;;;;;;;4966298;28;20230;-66
2021/12/23 05:57:39;;;;;;;1.47;1.10;;;;;;;;;;4965042;28;20675;-67
2021/12/23 06:00:08;;;;;;;7.23;4.40;;;;;;;;;;4963805;28;20699;-67
2021/12/23 06:02:36;;;;;;;1.13;1.07;;;;;;;;;;4965178;28;20198;-65
2021/12/23 06:05:05;;;;;;;0.03;0.03;;;;;;;;;;4966288;28;20221;-64
2021/12/23 06:07:32;;;;;;;9.70;3.90;;;;;;;;;;4967751;28;20226;-68
2021/12/23 06:09:59;;;;;;;7.23;5.50;;;;;;;;;;4966105;28;20206;-64
2021/12/23 06:12:27;;;;;;;1.80;0.90;;;;;;;;;;4965185;28;20210;-67
2021/12/23 06:14:55;;;;;;;14.63;6.90;;;;;;;;;;4965342;28;20207;-67
2021/12/23 06:17:22;;;;;;;5.50;2.20;;;;;;;;;;4966017;28;20660;-67
2021/12/23 06:19:50;;;;;;;3.60;3.33;;;;;;;;;;4966376;28;20289;-65
2021/12/23 06:22:19;;;;;;;0.43;0.43;;;;;;;;;;4963538;28;20567;-67
2021/12/23 06:24:48;;;;;;;4.17;3.80;;;;;;;;;;4966674;28;20554;-64
2021/12/23 06:27:16;;;;;;;2.33;0.83;;;;;;;;;;4965446;28;20230;-67
2021/12/23 06:29:44;;;;;;;1.30;0.80;;;;;;;;;;4964601;28;20206;-66
2021/12/23 06:32:12;;;;;;;1.37;1.27;;;;;;;;;;4964001;28;20215;-66
2021/12/23 06:34:40;;;;;;;3.93;3.57;;;;;;;;;;4965959;28;20198;-66
2021/12/23 06:37:08;;;;;;;6.93;4.07;;;;;;;;;;4966838;28;20217;-66
2021/12/23 06:39:38;;;;;;;2.80;2.30;;;;;;;;;;4967754;28;20218;-67
2021/12/23 06:42:06;;;;;;;7.03;4.77;;;;;;;;;;4968766;28;20207;-67
2021/12/23 06:44:33;;;;;;;3.27;1.80;;;;;;;;;;4967798;28;20202;-66
2021/12/23 06:47:01;;;;;;;4.87;4.40;;;;;;;;;;4968401;28;20222;-66
2021/12/23 06:49:31;;;;;;;3.63;2.87;;;;;;;;;;4969454;28;20652;-66
2021/12/23 06:51:59;;;;;;;0.83;0.53;;;;;;;;;;4969189;28;20209;-66
2021/12/23 06:54:27;;;;;;;2.07;1.90;;;;;;;;;;4970314;28;20242;-66
2021/12/23 06:56:56;;;;;;;5.93;2.93;;;;;;;;;;4969175;28;20213;-66
2021/12/23 06:59:23;;;;;;;7.20;3.10;;;;;;;;;;4969860;28;20290;-67
2021/12/23 07:01:51;;;;;;;3.03;2.13;;;;;;;;;;4969747;28;20205;-66
2021/12/23 07:04:21;;;;;;;0.47;0.47;;;;;;;;;;4967936;28;20253;-66
2021/12/23 07:06:58;;;;;;;3.53;2.57;;;;;;;;;;4968780;28;20230;-66
2021/12/23 07:09:26;;;;;;;2.97;1.40;;;;;;;;;;4969608;28;20213;-67
2021/12/23 07:11:53;;;;;;;1.20;1.10;;;;;;;;;;4967776;28;20214;-64
2021/12/23 07:14:22;;;;;;;0.50;0.50;;;;;;;;;;4966464;28;20214;-67
2021/12/23 07:16:49;;;;;;;2.43;2.00;;;;;;;;;;4966856;28;20349;-67
2021/12/23 07:19:16;;;;;;;4.03;3.67;;;;;;;;;;4969173;28;20219;-67
2021/12/23 07:21:44;;;;;;;7.30;2.43;;;;;;;;;;4970159;28;20214;-66
2021/12/23 07:24:11;;;;;;;5.67;4.57;;;;;;;;;;4967629;28;20568;-66
2021/12/23 07:26:39;;;;;;;4.73;3.10;;;;;;;;;;4966639;28;20595;-67
2021/12/23 07:29:06;;;;;;;5.53;4.90;;;;;;;;;;4966687;28;20587;-66
2021/12/23 07:31:35;;;;;;;2.67;2.47;;;;;;;;;;4969765;28;20199;-65
2021/12/23 07:34:02;;;;;;;0.00;0.00;;;;;;;;;;4969692;28;20638;-65
2021/12/23 07:36:30;;;;;;;1.70;0.77;;;;;;;;;;4966093;28;20210;-65
2021/12/23 07:38:57;;;;;;;0.20;0.20;;;;;;;;;;4966142;28;20218;-66
2021/12/23 07:41:26;;;;;;;2.10;1.77;;;;;;;;;;4969487;28;20293;-65
2021/12/23 07:43:58;;;;;;;3.60;3.20;;;;;;;;;;4969646;28;20217;-66
2021/12/23 07:46:26;;;;;;;2.50;1.13;;;;;;;;;;4966884;28;20226;-66
2021/12/23 07:48:55;;;;;;;0.00;0.00;;;;;;;;;;4969241;28;20198;-65
2021/12/23 07:51:22;;;;;;;0.50;0.50;;;;;;;;;;4967557;28;20206;-66
2021/12/23 07:53:50;;;;;;;5.13;3.40;;;;;;;;;;4965830;28;20234;-66
2021/12/23 07:56:17;;;;;;;4.27;1.83;;;;;;;;;;4965984;28;20715;-65
2021/12/23 07:58:45;;;;;;;6.07;3.80;;;;;;;;;;4966548;28;20656;-67
2021/12/23 08:01:12;;;;;;;3.37;3.07;;;;;;;;;;4966731;28;22153;-67
2021/12/23 08:03:40;;;;;;;0.33;0.33;;;;;;;;;;4966705;28;20306;-67
2021/12/23 08:06:08;;;;;;;2.60;1.77;;;;;;;;;;4966822;28;20660;-69
2021/12/23 08:08:36;;;;;;;0.43;0.30;;;;;;;;;;4967476;28;20224;-70
2021/12/23 08:11:03;;;;;;;1.03;0.97;;;;;;;;;;4965920;28;20213;-68
2021/12/23 08:13:31;;;;;;;5.67;4.90;;;;;;;;;;4967342;28;20214;-69
2021/12/23 08:16:00;;;;;;;0.10;0.10;;;;;;;;;;4965338;28;20209;-71
2021/12/23 08:18:28;;;;;;;2.70;1.87;;;;;;;;;;4968045;28;20259;-68
2021/12/23 08:20:55;;;;;;;3.53;3.17;;;;;;;;;;4967487;28;20217;-72
2021/12/23 08:23:24;;;;;;;0.57;0.57;;;;;;;;;;4966616;28;20222;-70
2021/12/23 08:25:52;;;;;;;0.30;0.30;;;;;;;;;;4964732;28;20206;-69
2021/12/23 08:28:19;;;;;;;2.33;2.13;;;;;;;;;;4964089;28;20230;-68
2021/12/23 08:30:47;;;;;;;1.53;0.37;;;;;;;;;;4967087;28;20205;-68
2021/12/23 08:33:14;;;;;;;3.20;2.77;;;;;;;;;;4965913;28;20206;-68
2021/12/23 08:35:42;;;;;;;4.77;2.37;;;;;;;;;;4966539;28;20202;-68
2021/12/23 08:38:09;;;;;;;7.43;2.47;;;;;;;;;;4967855;28;20565;-69
2021/12/23 08:40:38;;;;;;;1.73;1.03;;;;;;;;;;4967591;28;20224;-70
2021/12/23 08:43:05;;;;;;;1.87;1.70;;;;;;;;;;4965767;28;20214;-68
2021/12/23 08:45:34;;;;;;;2.47;1.60;;;;;;;;;;4965142;28;20297;-66
2021/12/23 08:48:01;;;;;;;9.83;7.03;;;;;;;;;;4967496;28;20320;-69
2021/12/23 08:50:29;;;;;;;1.70;0.63;;;;;;;;;;4967033;28;20220;-67
2021/12/23 08:52:57;;;;;;;3.93;3.07;;;;;;;;;;4967519;28;20333;-70
2021/12/23 08:55:27;;;;;;;1.33;1.23;;;;;;;;;;4966174;28;20600;-69
2021/12/23 08:57:57;;;;;;;3.10;2.00;;;;;;;;;;4965236;28;20205;-68
2021/12/23 09:00:26;;;;;;;4.70;3.80;;;;;;;;;;4964165;28;20210;-70
2021/12/23 09:02:54;;;;;;;4.00;2.47;;;;;;;;;;4965360;28;20660;-70
2021/12/23 09:05:21;;;;;;;0.83;0.83;;;;;;;;;;4966341;28;20555;-69
2021/12/23 09:07:50;;;;;;;1.40;0.90;;;;;;;;;;4969515;28;20227;-68
2021/12/23 09:10:17;;;;;;;1.40;1.17;;;;;;;;;;4967055;28;20293;-70
2021/12/23 09:12:45;;;;;;;2.53;2.33;;;;;;;;;;4965964;28;20298;-66
2021/12/23 09:15:14;;;;;;;3.07;2.80;;;;;;;;;;4966477;28;20314;-68
2021/12/23 09:17:42;;;;;;;4.80;4.40;;;;;;;;;;4967470;28;20567;-68
2021/12/23 09:20:11;;;;;;;5.40;1.50;;;;;;;;;;4965645;28;21696;-69
2021/12/23 09:22:39;;;;;;;4.13;2.73;;;;;;;;;;4967782;28;20276;-69
2021/12/23 09:25:11;;;;;;;4.17;3.63;;;;;;;;;;4960862;28;20230;-70
2021/12/23 09:27:50;;;;;;;2.87;1.90;;;;;;;;;;4965726;28;20665;-67
2021/12/23 09:33:04;;;;;;;1.77;1.50;;;;;;;;;;4963840;28;20210;-68
2021/12/23 09:35:32;;;;;;;5.67;2.90;;;;;;;;;;4962752;28;20198;-70
2021/12/23 09:38:00;;;;;;;9.03;3.87;;;;;;;;;;4964684;28;20203;-68
2021/12/23 09:40:29;;;;;;;4.00;2.43;;;;;;;;;;4966623;28;20212;-68
2021/12/23 09:42:59;;;;;;;8.83;4.10;;;;;;;;;;4964116;28;20575;-68
2021/12/23 09:45:28;;;;;;;0.83;0.83;;;;;;;;;;4967460;28;20217;-69
2021/12/23 09:47:56;;;;;;;3.63;3.33;;;;;;;;;;4961048;28;20292;-69
2021/12/23 09:50:24;;;;;;;7.33;4.77;;;;;;;;;;4965879;28;20665;-69
2021/12/23 09:52:53;;;;;;;10.43;7.17;;;;;;;;;;4969133;28;20206;-69
2021/12/23 09:55:21;;;;;;;7.43;4.07;;;;;;;;;;4968530;28;20237;-68
2021/12/23 09:57:49;;;;;;;7.73;3.80;;;;;;;;;;4969143;28;20208;-69
2021/12/23 10:00:19;;;;;;;6.57;3.67;;;;;;;;;;4969544;28;20206;-69
2021/12/23 10:02:48;;;;;;;4.47;4.13;;;;;;;;;;4966328;28;20205;-68
2021/12/23 10:05:17;;;;;;;4.57;2.00;;;;;;;;;;4966387;28;20216;-68
2021/12/23 10:07:46;;;;;;;8.93;4.27;;;;;;;;;;4967262;28;20730;-69
2021/12/23 10:10:18;;;;;;;4.13;2.87;;;;;;;;;;4965882;28;20230;-68
2021/12/23 10:27:11;;;;;;;12.33;8.17;;;;;;;;;;4969109;28;20261;-69
2021/12/23 10:32:35;;;;;;;5.17;3.53;;;;;;;;;;4971277;28;20393;-68
2021/12/23 10:38:02;;;;;;;3.67;2.53;;;;;;;;;;4972136;28;20213;-68
2021/12/23 10:40:30;;;;;;;10.87;7.30;;;;;;;;;;4970836;28;20289;-68
2021/12/23 10:42:58;;;;;;;6.90;5.43;;;;;;;;;;4971947;28;20234;-69
2021/12/23 10:45:25;;;;;;;3.10;0.83;;;;;;;;;;4972831;28;20203;-69
2021/12/23 10:47:57;;;;;;;5.57;3.53;;;;;;;;;;4976874;28;20599;-69
2021/12/23 10:50:33;;;;;;;2.83;2.70;;;;;;;;;;4968486;28;20249;-68
2021/12/23 10:53:03;;;;;;;7.23;1.60;;;;;;;;;;4966813;28;20198;-70
2021/12/23 10:58:16;;;;;;;3.50;2.87;;;;;;;;;;4984648;28;20281;-69
2021/12/23 11:00:46;;;;;;;6.20;2.83;;;;;;;;;;4970855;28;20203;-67
2021/12/23 11:03:22;;;;;;;4.80;3.63;;;;;;;;;;4978477;28;20206;-68
2021/12/23 11:06:01;;;;;;;8.97;2.10;;;;;;;;;;4969626;28;20205;-71
2021/12/23 11:08:37;;;;;;;2.20;1.97;;;;;;;;;;4971305;28;20292;-71
2021/12/23 11:11:41;;;;;;;0.97;0.93;;;;;;;;;;4970284;28;20201;-70
2021/12/23 11:39:45;;;;;;;5.93;2.73;;;;;;;;;;4969000;28;20292;-68
2021/12/23 11:42:20;;;;;;;5.33;1.70;;;;;;;;;;4966593;28;20202;-69
2021/12/23 11:44:48;;;;;;;8.37;6.00;;;;;;;;;;4968809;28;20276;-69
2021/12/23 11:47:15;;;;;;;4.07;2.43;;;;;;;;;;4967327;28;20257;-69
2021/12/23 11:49:45;;;;;;;4.23;3.20;;;;;;;;;;4963980;28;20743;-68
2021/12/23 11:52:14;;;;;;;4.33;3.53;;;;;;;;;;4962495;28;22017;-70
2021/12/23 11:54:45;;;;;;;3.17;2.53;;;;;;;;;;4962325;28;20240;-69
2021/12/23 11:57:14;;;;;;;4.63;3.80;;;;;;;;;;4964473;28;20245;-68
2021/12/23 11:59:44;;;;;;;8.77;4.83;;;;;;;;;;4964683;28;20277;-69
2021/12/23 12:02:16;;;;;;;4.37;3.53;;;;;;;;;;4963890;28;20213;-69
2021/12/23 12:04:44;;;;;;;2.50;2.37;;;;;;;;;;4962268;28;20213;-70
2021/12/23 12:07:15;;;;;;;6.33;2.97;;;;;;;;;;4964904;28;20210;-69
2021/12/23 12:09:56;;;;;;;1.90;1.80;;;;;;;;;;4964413;28;20202;-69
2021/12/23 12:12:24;;;;;;;11.30;6.53;;;;;;;;;;4964136;28;20682;-70
2021/12/23 12:14:55;;;;;;;8.20;6.20;;;;;;;;;;4968610;28;20615;-70
2021/12/23 12:17:39;;;;;;;8.97;5.13;;;;;;;;;;4969123;28;20290;-68
2021/12/23 12:20:10;;;;;;;1.60;1.50;;;;;;;;;;4970107;28;20656;-70
2021/12/23 12:22:48;;;;;;;4.57;3.70;;;;;;;;;;4970155;28;20206;-68
2021/12/23 12:25:45;;;;;;;4.63;4.07;;;;;;;;;;4966324;28;20210;-70
2021/12/23 12:28:14;;;;;;;0.40;0.40;;;;;;;;;;4968945;28;20229;-69
2021/12/23 12:30:43;;;;;;;13.43;6.20;;;;;;;;;;4971515;28;20212;-71
2021/12/23 12:33:12;;;;;;;9.40;4.30;;;;;;;;;;4964692;28;20931;-69
2021/12/23 12:35:41;;;;;;;1.83;1.60;;;;;;;;;;4961541;28;20212;-69
2021/12/23 12:38:13;;;;;;;3.30;2.73;;;;;;;;;;4962976;28;20199;-69
2021/12/23 12:40:57;;;;;;;1.80;1.70;;;;;;;;;;4962806;28;20697;-69
2021/12/23 12:43:35;;;;;;;4.50;3.40;;;;;;;;;;4966249;28;20683;-67
2021/12/23 12:46:03;;;;;;;5.00;3.43;;;;;;;;;;4966079;28;20225;-69
2021/12/23 12:48:49;;;;;;;4.90;4.40;;;;;;;;;;4968939;28;20244;-69
2021/12/23 12:51:20;;;;;;;1.40;1.30;;;;;;;;;;4961032;28;20568;-68
2021/12/23 12:53:52;;;;;;;4.47;3.90;;;;;;;;;;4960493;28;20217;-68
2021/12/23 12:56:23;;;;;;;4.00;3.60;;;;;;;;;;4971280;28;20229;-69
2021/12/23 12:58:53;;;;;;;3.93;3.63;;;;;;;;;;4975224;28;20206;-68
2021/12/23 13:01:30;;;;;;;11.70;4.63;;;;;;;;;;4967174;28;20567;-69
2021/12/23 13:03:59;;;;;;;4.00;3.17;;;;;;;;;;4971065;28;21394;-68
2021/12/23 13:06:29;;;;;;;3.47;3.17;;;;;;;;;;4969904;28;20230;-68
2021/12/23 13:09:04;;;;;;;5.13;4.73;;;;;;;;;;4965849;28;20229;-67
2021/12/23 13:11:33;;;;;;;6.30;3.77;;;;;;;;;;4973576;28;20209;-69
2021/12/23 13:14:02;;;;;;;0.83;0.83;;;;;;;;;;4975390;28;20210;-68
2021/12/23 13:16:30;;;;;;;3.87;3.33;;;;;;;;;;4971820;28;20210;-68
2021/12/23 13:19:12;;;;;;;0.30;0.30;;;;;;;;;;4973134;28;20634;-68
2021/12/23 13:21:41;;;;;;;3.00;1.40;;;;;;;;;;4970220;28;20206;-68
2021/12/23 13:24:11;;;;;;;1.80;1.70;;;;;;;;;;4967245;28;20214;-68
2021/12/23 13:26:40;;;;;;;3.97;3.57;;;;;;;;;;4969927;28;20213;-68
2021/12/23 13:29:09;;;;;;;1.03;0.93;;;;;;;;;;4971071;28;20244;-66
2021/12/23 13:31:38;;;;;;;13.13;4.50;;;;;;;;;;4972259;28;20217;-67
2021/12/23 13:34:06;;;;;;;9.03;4.27;;;;;;;;;;4971065;28;20222;-68
2021/12/23 13:36:34;;;;;;;0.40;0.40;;;;;;;;;;4969625;28;20245;-68
2021/12/23 13:39:03;;;;;;;2.50;2.33;;;;;;;;;;4972779;28;20304;-67
2021/12/23 13:41:31;;;;;;;3.57;1.97;;;;;;;;;;4968576;28;20575;-67
2021/12/23 13:44:01;;;;;;;1.10;1.03;;;;;;;;;;4970293;28;20594;-69
2021/12/23 13:46:32;;;;;;;1.40;1.40;;;;;;;;;;4968167;28;20717;-68
2021/12/23 13:49:01;;;;;;;0.60;0.53;;;;;;;;;;4970048;28;20226;-67
2021/12/23 13:51:30;;;;;;;3.63;2.73;;;;;;;;;;4972587;28;20953;-69
2021/12/23 13:54:05;;;;;;;2.63;2.00;;;;;;;;;;4970115;28;20222;-69
2021/12/23 13:56:33;;;;;;;7.30;3.53;;;;;;;;;;4968961;28;21165;-69
2021/12/23 13:59:09;;;;;;;3.07;2.83;;;;;;;;;;4972003;28;20198;-69
2021/12/23 14:01:51;;;;;;;3.63;2.13;;;;;;;;;;4968876;28;20213;-69
2021/12/23 14:04:29;;;;;;;2.77;2.53;;;;;;;;;;4968678;28;20190;-69
2021/12/23 14:06:56;;;;;;;3.47;3.27;;;;;;;;;;4967050;28;20206;-69
2021/12/23 14:09:30;;;;;;;1.60;1.50;;;;;;;;;;4966348;28;20236;-67
2021/12/23 14:11:57;;;;;;;10.70;6.63;;;;;;;;;;4970469;28;20213;-68
2021/12/23 14:14:26;;;;;;;6.83;5.20;;;;;;;;;;4966615;28;20217;-64
2021/12/23 14:16:54;;;;;;;2.47;1.97;;;;;;;;;;4967835;28;20706;-68
2021/12/23 14:19:26;;;;;;;3.00;1.30;;;;;;;;;;4971461;28;20705;-66
2021/12/23 14:24:38;;;;;;;6.97;4.97;;;;;;;;;;4971502;28;20233;-67
2021/12/23 14:27:06;;;;;;;9.37;4.77;;;;;;;;;;4969129;28;20213;-68
2021/12/23 14:29:37;;;;;;;11.77;6.80;;;;;;;;;;4970475;28;20225;-68
2021/12/23 14:32:05;;;;;;;5.70;4.83;;;;;;;;;;4967790;28;20296;-68
2021/12/23 14:34:35;;;;;;;8.17;7.33;;;;;;;;;;4976496;28;20210;-69
2021/12/23 14:37:02;;;;;;;8.67;4.13;;;;;;;;;;4979531;28;20675;-67
2021/12/23 14:39:31;;;;;;;8.50;3.70;;;;;;;;;;4977216;28;20225;-68
2021/12/23 14:41:59;;;;;;;4.63;3.03;;;;;;;;;;4978917;28;20216;-68
2021/12/23 14:44:27;;;;;;;5.87;4.20;;;;;;;;;;4977129;28;20210;-68
2021/12/23 14:47:03;;;;;;;8.70;6.93;;;;;;;;;;4975591;28;20260;-67
2021/12/23 14:52:25;;;;;;;4.17;3.87;;;;;;;;;;4974118;28;20706;-70
2021/12/23 14:54:57;;;;;;;3.20;2.77;;;;;;;;;;4975640;28;20229;-68
2021/12/23 14:57:27;;;;;;;3.47;3.20;;;;;;;;;;4977420;28;20225;-68
2021/12/23 14:59:56;;;;;;;7.50;6.20;;;;;;;;;;4977297;28;20209;-68
2021/12/23 15:02:25;;;;;;;4.40;2.80;;;;;;;;;;4973351;28;20202;-68
2021/12/23 15:05:04;;;;;;;8.40;6.00;;;;;;;;;;4978002;28;20202;-69
2021/12/23 15:07:50;;;;;;;3.13;2.80;;;;;;;;;;4975358;28;20222;-68
2021/12/23 15:10:27;;;;;;;1.13;1.13;;;;;;;;;;4975220;28;20221;-68
2021/12/23 15:12:54;;;;;;;4.83;3.33;;;;;;;;;;4978019;28;20288;-68
2021/12/23 15:15:22;;;;;;;4.53;2.03;;;;;;;;;;4978579;28;20206;-68
2021/12/23 15:17:54;;;;;;;14.37;7.70;;;;;;;;;;4975674;28;20297;-69
2021/12/23 15:20:27;;;;;;;0.53;0.50;;;;;;;;;;4969814;28;20750;-68
2021/12/23 15:22:56;;;;;;;9.67;6.27;;;;;;;;;;4977676;28;20494;-67
2021/12/23 15:25:33;;;;;;;5.20;4.47;;;;;;;;;;4977250;28;20284;-69
2021/12/23 15:28:01;;;;;;;9.63;7.30;;;;;;;;;;4972481;28;20218;-68
2021/12/23 15:30:30;;;;;;;1.23;1.23;;;;;;;;;;4971258;28;20312;-68
2021/12/23 15:33:00;;;;;;;5.70;2.63;;;;;;;;;;4976211;28;20239;-68
2021/12/23 15:35:30;;;;;;;5.63;4.27;;;;;;;;;;4976509;28;20214;-68
2021/12/23 15:38:03;;;;;;;7.90;2.63;;;;;;;;;;4983750;28;20225;-68
2021/12/23 15:40:32;;;;;;;7.33;4.70;;;;;;;;;;4986193;28;20683;-69
2021/12/23 15:43:01;;;;;;;6.27;4.83;;;;;;;;;;4982442;28;20209;-69
2021/12/23 15:45:29;;;;;;;11.00;6.90;;;;;;;;;;4975227;28;20820;-68
2021/12/23 15:47:57;;;;;;;16.37;8.13;;;;;;;;;;4976894;28;20210;-69
2021/12/23 15:50:27;;;;;;;2.70;1.70;;;;;;;;;;4986039;28;20226;-69
2021/12/23 15:52:58;;;;;;;2.60;2.00;;;;;;;;;;4988610;28;20202;-67